Time;durP1;ratioP1;P1;durP2;ratioP2;P2;SDS_P1;SDS_P2;PMS_P1;PMS_P2;Temp;Humidity;BMP_temperature;BMP_pressure;BME280_temperature;BME280_humidity;BME280_pressure;Samples;Min_cycle;Max_cycle;Signal;HPM_P1;HPM_P2
2023/05/25 00:00:27;;;;;;;24.85;11.60;;;;;;;9.61;94.65;101687.50;4979672;28;20045;-79
2023/05/25 00:02:55;;;;;;;20.10;11.25;;;;;;;9.60;94.41;101691.06;4980962;28;20061;-79
2023/05/25 00:05:26;;;;;;;22.88;11.00;;;;;;;9.53;94.52;101687.28;4973265;28;20133;-80
2023/05/25 00:07:53;;;;;;;21.50;12.13;;;;;;;9.54;94.62;101701.19;4980620;28;20051;-78
2023/05/25 00:10:20;;;;;;;22.25;11.55;;;;;;;9.43;94.47;101693.41;4980079;28;20055;-81
2023/05/25 00:12:47;;;;;;;22.73;11.57;;;;;;;9.42;94.93;101700.41;4979085;28;20534;-79
2023/05/25 00:15:14;;;;;;;25.05;11.90;;;;;;;9.37;95.27;101704.34;4977623;28;20145;-78
2023/05/25 00:17:40;;;;;;;24.27;12.00;;;;;;;9.30;95.15;101701.38;4977268;28;20050;-78
2023/05/25 00:20:09;;;;;;;23.35;11.30;;;;;;;9.30;95.63;101703.97;4977967;28;20078;-81
2023/05/25 00:22:36;;;;;;;24.77;11.55;;;;;;;9.28;95.82;101703.28;4979426;28;20479;-81
2023/05/25 00:25:03;;;;;;;23.52;11.70;;;;;;;9.23;95.83;101715.88;4978985;28;20071;-79
2023/05/25 00:27:30;;;;;;;21.27;11.48;;;;;;;9.18;96.12;101707.56;4978166;28;20050;-78
2023/05/25 00:29:57;;;;;;;20.25;11.27;;;;;;;9.16;96.42;101710.28;4978287;28;20074;-78
2023/05/25 00:32:24;;;;;;;25.77;12.30;;;;;;;9.14;96.47;101706.13;4978556;28;20082;-78
2023/05/25 00:34:50;;;;;;;22.05;12.07;;;;;;;9.07;96.60;101700.56;4978079;28;20122;-76
2023/05/25 00:37:18;;;;;;;24.08;12.05;;;;;;;9.06;96.49;101711.13;4976844;28;20150;-77
2023/05/25 00:39:45;;;;;;;23.85;11.93;;;;;;;9.12;96.58;101702.81;4976050;28;20751;-76
2023/05/25 00:42:12;;;;;;;20.10;11.88;;;;;;;9.01;96.68;101713.25;4975721;28;20134;-77
2023/05/25 00:44:39;;;;;;;23.38;12.15;;;;;;;8.97;96.56;101713.53;4977806;28;20055;-77
2023/05/25 00:47:05;;;;;;;17.50;11.05;;;;;;;8.96;96.95;101711.88;4976376;28;20082;-78
2023/05/25 00:49:35;;;;;;;22.80;11.65;;;;;;;8.94;97.03;101718.97;4970464;28;20129;-78
2023/05/25 00:52:03;;;;;;;20.65;11.85;;;;;;;8.89;97.49;101707.25;4978802;28;20051;-77
2023/05/25 00:54:32;;;;;;;23.48;11.60;;;;;;;8.85;97.11;101713.63;4980620;28;20065;-79
2023/05/25 00:57:03;;;;;;;20.95;11.73;;;;;;;8.85;97.38;101717.09;4980380;28;20462;-79
2023/05/25 00:59:34;;;;;;;22.08;11.23;;;;;;;8.79;97.59;101707.09;4972740;28;20058;-78
2023/05/25 01:02:04;;;;;;;20.33;12.57;;;;;;;8.85;97.59;101713.63;4979711;28;20050;-77
2023/05/25 01:04:35;;;;;;;25.02;12.40;;;;;;;8.81;97.59;101717.44;4981236;28;20050;-78
2023/05/25 01:07:05;;;;;;;24.00;13.32;;;;;;;8.75;97.45;101712.69;4978595;28;20054;-79
2023/05/25 01:09:35;;;;;;;19.45;12.50;;;;;;;8.80;97.45;101716.59;4979114;28;20090;-78
2023/05/25 01:12:02;;;;;;;28.10;12.90;;;;;;;8.74;97.42;101705.78;4980079;28;20134;-82
2023/05/25 01:14:30;;;;;;;28.10;13.18;;;;;;;8.63;97.68;101722.28;4981769;28;20051;-79
2023/05/25 01:16:58;;;;;;;23.95;12.77;;;;;;;8.66;97.80;101719.44;4980716;28;20050;-77
2023/05/25 01:19:25;;;;;;;24.83;13.18;;;;;;;8.61;98.03;101721.56;4981451;28;20050;-79
2023/05/25 01:22:01;;;;;;;22.63;12.48;;;;;;;8.58;98.29;101732.22;4983237;28;20408;-79
2023/05/25 01:24:33;;;;;;;22.58;12.73;;;;;;;8.57;98.52;101727.94;4981397;28;20070;-77
2023/05/25 01:29:33;;;;;;;25.60;13.43;;;;;;;8.49;98.52;101727.72;5008960;28;20167;-76
2023/05/25 01:32:02;;;;;;;21.45;12.48;;;;;;;8.44;98.62;101728.06;5009988;28;20411;-76
2023/05/25 01:34:31;;;;;;;23.27;12.98;;;;;;;8.42;98.89;101723.91;5010964;28;20153;-77
2023/05/25 01:36:59;;;;;;;20.00;12.98;;;;;;;8.38;99.23;101718.09;5010890;28;20061;-77
2023/05/25 01:39:25;;;;;;;30.58;12.63;;;;;;;8.48;99.08;101721.69;5012718;28;20046;-77
2023/05/25 01:41:52;;;;;;;24.27;12.77;;;;;;;8.50;98.96;101719.78;5013876;28;20145;-77
2023/05/25 01:44:19;;;;;;;23.98;12.68;;;;;;;8.40;99.05;101717.97;5013773;28;20598;-76
2023/05/25 01:46:49;;;;;;;19.48;12.02;;;;;;;8.35;99.09;101720.09;5014006;28;20049;-77
2023/05/25 01:49:21;;;;;;;21.55;12.02;;;;;;;8.38;99.02;101725.91;5013638;28;20533;-76
2023/05/25 01:51:56;;;;;;;23.00;12.10;;;;;;;8.40;98.89;101728.41;5014640;28;20507;-76
2023/05/25 01:54:34;;;;;;;21.35;12.15;;;;;;;8.35;98.57;101720.94;5014762;28;20115;-78
2023/05/25 01:57:03;;;;;;;17.30;11.80;;;;;;;8.33;98.83;101728.03;5014436;28;20077;-76
2023/05/25 01:59:31;;;;;;;17.27;11.68;;;;;;;8.28;99.26;101720.53;5014355;28;20132;-76
2023/05/25 02:02:00;;;;;;;21.60;11.70;;;;;;;8.30;99.56;101718.63;5013465;28;20054;-76
2023/05/25 02:04:27;;;;;;;19.92;12.18;;;;;;;8.28;99.59;101725.75;5012731;28;20077;-76
2023/05/25 02:06:53;;;;;;;24.83;12.98;;;;;;;8.25;99.75;101725.97;5014088;28;20081;-77
2023/05/25 02:09:20;;;;;;;25.30;15.00;;;;;;;8.22;99.84;101730.56;5014417;28;20973;-77
2023/05/25 02:11:48;;;;;;;27.58;15.57;;;;;;;8.21;100.00;101723.69;5014360;28;20053;-77
2023/05/25 02:14:15;;;;;;;26.80;14.85;;;;;;;8.20;100.00;101722.88;5013296;28;20136;-77
2023/05/25 02:16:44;;;;;;;25.73;15.32;;;;;;;8.14;99.97;101717.28;5013218;28;20132;-77
2023/05/25 02:19:13;;;;;;;23.80;14.23;;;;;;;8.08;99.97;101726.38;5013924;28;20081;-77
2023/05/25 02:21:40;;;;;;;32.15;15.05;;;;;;;8.06;100.00;101730.88;5014991;28;20081;-78
2023/05/25 02:24:08;;;;;;;23.45;14.35;;;;;;;8.05;100.00;101729.22;5016670;28;20084;-78
2023/05/25 02:26:35;;;;;;;27.17;14.52;;;;;;;8.01;100.00;101725.19;5012657;28;20084;-79
2023/05/25 02:29:03;;;;;;;23.15;14.55;;;;;;;8.02;100.00;101739.06;5018410;28;20097;-79
2023/05/25 02:31:30;;;;;;;26.67;13.70;;;;;;;7.99;100.00;101735.72;5018001;28;20073;-79
2023/05/25 02:33:57;;;;;;;23.25;13.07;;;;;;;8.02;100.00;101723.41;5018784;28;20419;-81
2023/05/25 02:36:24;;;;;;;21.20;13.63;;;;;;;7.95;100.00;101728.25;5021152;28;20050;-79
2023/05/25 02:38:51;;;;;;;22.38;13.93;;;;;;;7.88;100.00;101730.47;5021421;28;20053;-79
2023/05/25 02:41:19;;;;;;;30.20;14.02;;;;;;;7.80;100.00;101729.34;5022548;28;20516;-79
2023/05/25 02:43:46;;;;;;;24.23;13.55;;;;;;;7.74;100.00;101735.84;5019078;28;20057;-78
2023/05/25 02:46:14;;;;;;;24.83;12.90;;;;;;;7.75;100.00;101744.47;5017088;28;20073;-77
2023/05/25 02:48:41;;;;;;;23.75;13.70;;;;;;;7.70;100.00;101738.78;5014695;28;20129;-77
2023/05/25 02:51:08;;;;;;;24.30;13.85;;;;;;;7.62;100.00;101745.34;5013728;28;20088;-77
2023/05/25 02:53:36;;;;;;;24.45;12.93;;;;;;;7.61;100.00;101746.28;5014566;28;20078;-77
2023/05/25 02:56:03;;;;;;;26.55;13.43;;;;;;;7.60;100.00;101749.84;5015531;28;20088;-78
2023/05/25 02:58:30;;;;;;;19.13;13.48;;;;;;;7.57;100.00;101752.66;5015531;28;20057;-79
2023/05/25 03:00:58;;;;;;;22.52;12.65;;;;;;;7.51;100.00;101755.72;5018395;28;20050;-78
2023/05/25 03:03:27;;;;;;;24.08;13.02;;;;;;;7.47;100.00;101743.88;5016827;28;20053;-77
2023/05/25 03:05:54;;;;;;;24.38;13.65;;;;;;;7.41;100.00;101757.31;5009812;28;20085;-76
2023/05/25 03:08:20;;;;;;;21.30;13.32;;;;;;;7.36;100.00;101751.59;5015662;28;20112;-78
2023/05/25 03:10:47;;;;;;;26.05;14.88;;;;;;;7.34;100.00;101761.28;5016685;28;20132;-78
2023/05/25 03:13:14;;;;;;;22.92;13.15;;;;;;;7.44;100.00;101764.91;5015728;28;20124;-78
2023/05/25 03:15:40;;;;;;;26.83;14.00;;;;;;;7.40;100.00;101770.44;5015800;28;20133;-79
2023/05/25 03:18:07;;;;;;;25.70;14.88;;;;;;;7.45;100.00;101765.75;5017126;28;20508;-79
2023/05/25 03:20:35;;;;;;;22.27;13.27;;;;;;;7.47;100.00;101767.31;5016903;28;20046;-79
2023/05/25 03:23:02;;;;;;;26.65;14.32;;;;;;;7.45;100.00;101770.94;5010210;28;20389;-79
2023/05/25 03:25:29;;;;;;;26.95;15.10;;;;;;;7.41;100.00;101762.53;5015865;28;20478;-77
2023/05/25 03:27:56;;;;;;;30.95;14.68;;;;;;;7.44;100.00;101774.50;5015328;28;20054;-78
2023/05/25 03:30:23;;;;;;;21.60;13.80;;;;;;;7.45;100.00;101774.38;5015984;28;20061;-78
2023/05/25 03:32:49;;;;;;;24.30;13.63;;;;;;;7.48;100.00;101781.16;5016030;28;20088;-78
2023/05/25 03:35:16;;;;;;;32.30;14.70;;;;;;;7.52;100.00;101787.81;5016307;28;20245;-79
2023/05/25 03:37:44;;;;;;;24.58;15.18;;;;;;;7.50;100.00;101787.94;5016201;28;20133;-78
2023/05/25 03:40:11;;;;;;;30.65;14.30;;;;;;;7.51;100.00;101791.34;5014980;28;20103;-76
2023/05/25 03:42:38;;;;;;;24.40;14.23;;;;;;;7.55;100.00;101798.84;5012760;28;20490;-77
2023/05/25 03:45:07;;;;;;;27.52;14.48;;;;;;;7.61;100.00;101793.19;5012373;28;20316;-77
2023/05/25 03:47:34;;;;;;;31.15;14.73;;;;;;;7.62;100.00;101796.63;5016453;28;20128;-77
2023/05/25 03:50:01;;;;;;;23.25;13.77;;;;;;;7.69;100.00;101791.81;5020415;28;20085;-77
2023/05/25 03:52:27;;;;;;;28.73;14.65;;;;;;;7.62;100.00;101788.81;5021119;28;20077;-77
2023/05/25 03:54:55;;;;;;;27.40;14.50;;;;;;;7.81;100.00;101794.38;5036895;28;20034;-78
2023/05/25 03:57:22;;;;;;;22.70;13.82;;;;;;;8.01;100.00;101800.78;5033951;28;20069;-77
2023/05/25 03:59:49;;;;;;;24.08;14.40;;;;;;;8.18;100.00;101807.34;5021088;28;20049;-78
2023/05/25 04:02:16;;;;;;;23.67;13.20;;;;;;;8.41;100.00;101796.13;5016302;28;20049;-78
2023/05/25 04:04:42;;;;;;;21.05;12.63;;;;;;;8.70;100.00;101798.31;5015489;28;20069;-78
2023/05/25 04:07:09;;;;;;;25.27;13.15;;;;;;;8.96;100.00;101797.19;5015675;28;20057;-78
2023/05/25 04:09:36;;;;;;;20.20;12.55;;;;;;;9.12;99.05;101792.44;5015404;28;20077;-78
2023/05/25 04:12:04;;;;;;;26.35;12.63;;;;;;;9.23;98.08;101786.38;5016128;28;20057;-78
2023/05/25 04:14:31;;;;;;;21.75;13.25;;;;;;;9.36;97.08;101800.16;5015779;28;20069;-78
2023/05/25 04:16:58;;;;;;;28.15;12.27;;;;;;;9.32;96.16;101790.88;5015103;28;20112;-78
2023/05/25 04:19:24;;;;;;;19.67;12.52;;;;;;;9.55;95.41;101789.06;5020660;28;20049;-78
2023/05/25 04:21:51;;;;;;;22.13;12.40;;;;;;;9.63;95.06;101790.13;5019464;28;20073;-79
2023/05/25 04:24:17;;;;;;;21.05;12.10;;;;;;;9.76;94.06;101791.78;5017702;28;20053;-78
2023/05/25 04:26:45;;;;;;;22.50;11.70;;;;;;;10.22;93.08;101792.38;5016544;28;20105;-78
2023/05/25 04:29:13;;;;;;;20.35;12.57;;;;;;;10.41;91.19;101775.97;5016910;28;20049;-80
2023/05/25 04:31:40;;;;;;;27.38;13.70;;;;;;;10.42;90.46;101780.25;5018030;28;20042;-78
2023/05/25 04:34:08;;;;;;;26.77;12.35;;;;;;;10.29;90.46;101793.53;5017726;28;20107;-79
2023/05/25 04:36:37;;;;;;;23.90;12.88;;;;;;;10.19;90.33;101790.00;5017014;28;20081;-78
2023/05/25 04:39:04;;;;;;;19.90;12.55;;;;;;;10.20;90.74;101794.28;5015876;28;20096;-78
2023/05/25 04:41:32;;;;;;;26.83;12.70;;;;;;;10.36;90.97;101793.03;5015528;28;20464;-78
2023/05/25 04:44:00;;;;;;;22.83;12.35;;;;;;;10.68;90.64;101791.16;5016367;28;20429;-77
2023/05/25 04:46:28;;;;;;;25.40;13.00;;;;;;;10.91;89.96;101795.28;5013131;28;20061;-78
2023/05/25 04:48:55;;;;;;;25.05;12.10;;;;;;;10.70;89.10;101786.63;5016328;28;20045;-78
2023/05/25 04:51:21;;;;;;;21.40;12.45;;;;;;;10.48;89.28;101786.75;5016223;28;20573;-79
2023/05/25 04:53:48;;;;;;;20.25;12.38;;;;;;;10.73;89.88;101788.19;5011556;28;20056;-78
2023/05/25 04:56:15;;;;;;;20.88;12.18;;;;;;;11.11;89.60;101798.00;5013461;28;20473;-77
2023/05/25 04:58:42;;;;;;;23.23;12.02;;;;;;;11.30;88.71;101795.47;5020945;28;20113;-77
2023/05/25 05:01:08;;;;;;;20.80;12.57;;;;;;;11.41;88.10;101797.16;5023379;28;20084;-79
2023/05/25 05:03:36;;;;;;;22.25;12.07;;;;;;;11.83;86.85;101797.84;5023979;28;20050;-78
2023/05/25 05:06:03;;;;;;;18.60;11.75;;;;;;;12.03;86.25;101803.94;5010786;28;20050;-78
2023/05/25 05:08:30;;;;;;;26.65;11.80;;;;;;;12.43;85.02;101793.28;5015265;28;20073;-79
2023/05/25 05:10:57;;;;;;;21.20;11.90;;;;;;;12.66;83.94;101792.03;5016249;28;20050;-79
2023/05/25 05:13:25;;;;;;;23.88;11.48;;;;;;;12.58;83.29;101790.09;5015448;28;20477;-78
2023/05/25 05:15:52;;;;;;;23.98;11.77;;;;;;;12.89;83.19;101808.28;5018666;28;20050;-78
2023/05/25 05:18:19;;;;;;;25.40;11.45;;;;;;;13.38;82.11;101799.28;5018698;28;20049;-78
2023/05/25 05:20:47;;;;;;;19.45;10.52;;;;;;;14.25;79.40;101807.41;5016589;28;20108;-77
2023/05/25 05:23:14;;;;;;;22.13;10.38;;;;;;;14.97;76.91;101799.41;5013094;28;20217;-80
2023/05/25 05:25:40;;;;;;;20.63;9.75;;;;;;;15.42;74.65;101799.13;5019619;28;20046;-79
2023/05/25 05:28:07;;;;;;;18.75;9.95;;;;;;;16.27;72.24;101800.63;5018709;28;20133;-78
2023/05/25 05:30:33;;;;;;;;;;;;;;;16.41;70.60;101785.94;5017468;28;20046;-79
2023/05/25 05:33:00;;;;;;;;;;;;;;;16.98;70.07;101801.75;5018308;28;19960;-79
2023/05/25 05:35:27;;;;;;;;;;;;;;;17.07;69.21;101787.47;5011126;28;19964;-79
2023/05/25 05:37:55;;;;;;;24.42;11.23;;;;;;;16.90;68.08;101787.53;5019975;28;20012;-79
2023/05/25 05:40:22;;;;;;;18.77;10.45;;;;;;;17.59;67.60;101793.88;5019173;28;20054;-80
2023/05/25 05:42:48;;;;;;;;;;;;;;;17.63;66.75;101793.50;5019680;28;20049;-79
2023/05/25 05:45:15;;;;;;;;;;;;;;;17.93;66.28;101799.84;5013680;28;19926;-79
2023/05/25 05:47:41;;;;;;;;;;;;;;;17.71;66.03;101796.16;5019540;28;20036;-78
2023/05/25 05:50:08;;;;;;;;;;;;;;;17.27;67.17;101799.31;5017884;28;20734;-79
2023/05/25 05:52:34;;;;;;;;;;;;;;;17.54;67.30;101804.13;5019204;28;20016;-79
2023/05/25 05:55:02;;;;;;;;;;;;;;;18.40;66.00;101818.19;5018851;28;20086;-79
2023/05/25 05:57:29;;;;;;;;;;;;;;;18.96;64.24;101800.91;5017255;28;19964;-78
2023/05/25 05:59:55;;;;;;;;;;;;;;;18.63;62.91;101792.47;5020111;28;19932;-78
2023/05/25 06:02:21;;;;;;;;;;;;;;;19.14;63.77;101806.69;5019455;28;20024;-79
2023/05/25 06:04:48;;;;;;;;;;;;;;;19.88;62.06;101803.91;5020569;28;19936;-79
2023/05/25 06:07:14;;;;;;;;;;;;;;;19.41;61.22;101797.22;5018965;28;19980;-79
2023/05/25 06:09:40;;;;;;;;;;;;;;;19.33;61.15;101796.53;5018608;28;19926;-78
2023/05/25 06:12:09;;;;;;;;;;;;;;;19.99;60.22;101792.78;5018781;28;20464;-77
2023/05/25 06:14:35;;;;;;;;;;;;;;;19.66;60.15;101805.72;5017099;28;19925;-78
2023/05/25 06:17:02;;;;;;;;;;;;;;;20.06;59.71;101812.25;5017113;28;20306;-78
2023/05/25 06:19:28;;;;;;;;;;;;;;;20.20;58.54;101803.41;5018837;28;19956;-79
2023/05/25 06:21:54;;;;;;;;;;;;;;;18.87;61.52;101815.28;5018932;28;19926;-80
2023/05/25 06:24:21;;;;;;;;;;;;;;;19.09;61.75;101810.88;5018530;28;19980;-79
2023/05/25 06:26:47;;;;;;;;;;;;;;;18.44;61.20;101811.50;5018057;28;20358;-80
2023/05/25 06:29:15;;;;;;;;;;;;;;;19.07;61.41;101805.75;5013941;28;20004;-79
2023/05/25 06:31:42;;;;;;;;;;;;;;;19.66;61.19;101819.00;5019079;28;19981;-80
2023/05/25 06:34:08;;;;;;;23.00;11.40;;;;;;;18.62;62.32;101824.47;5019501;28;19926;-79
2023/05/25 06:36:36;;;;;;;21.98;10.32;;;;;;;17.78;64.67;101835.00;5018547;28;20108;-80
2023/05/25 06:39:02;;;;;;;20.05;10.10;;;;;;;17.63;64.51;101831.41;5018751;28;20062;-80
2023/05/25 06:41:29;;;;;;;21.75;10.27;;;;;;;18.21;63.42;101836.22;5018152;28;20113;-80
2023/05/25 06:43:56;;;;;;;16.40;10.38;;;;;;;20.04;61.56;101832.88;5017786;28;20077;-80
2023/05/25 06:46:24;;;;;;;18.80;10.90;;;;;;;19.59;60.85;101830.53;5018428;28;20077;-80
2023/05/25 06:48:50;;;;;;;24.40;10.85;;;;;;;18.90;62.77;101830.84;5014957;28;20129;-80
2023/05/25 06:51:17;;;;;;;20.60;10.25;;;;;;;20.05;61.35;101834.53;5019409;28;20103;-80
2023/05/25 06:53:44;;;;;;;19.23;10.35;;;;;;;20.27;59.40;101829.22;5016649;28;20181;-80
2023/05/25 06:56:10;;;;;;;23.00;10.10;;;;;;;20.81;57.92;101832.94;5012306;28;20109;-80
2023/05/25 06:58:37;;;;;;;20.48;10.98;;;;;;;20.50;58.04;101832.50;5014998;28;20071;-82
2023/05/25 07:01:04;;;;;;;26.00;10.50;;;;;;;20.51;59.31;101848.28;5016035;28;20072;-82
2023/05/25 07:03:32;;;;;;;17.08;10.52;;;;;;;21.19;57.53;101836.06;5010736;28;20569;-82
2023/05/25 07:05:59;;;;;;;24.05;11.25;;;;;;;20.46;58.25;101840.03;5013916;28;20128;-82
2023/05/25 07:08:25;;;;;;;22.15;11.25;;;;;;;19.65;59.63;101838.59;5014302;28;20423;-82
2023/05/25 07:10:52;;;;;;;24.20;11.52;;;;;;;20.21;59.63;101846.75;5012168;28;20050;-83
2023/05/25 07:13:19;;;;;;;27.50;11.88;;;;;;;20.33;58.66;101842.56;5013773;28;20046;-83
2023/05/25 07:15:46;;;;;;;24.70;11.55;;;;;;;20.59;58.19;101849.16;5018394;28;20124;-83
2023/05/25 07:18:13;;;;;;;21.60;11.10;;;;;;;20.98;58.13;101856.59;5033771;28;20042;-83
2023/05/25 07:20:42;;;;;;;20.52;12.07;;;;;;;20.33;59.05;101860.34;5030175;28;20062;-83
2023/05/25 07:23:09;;;;;;;22.48;11.35;;;;;;;21.33;58.08;101855.59;5021171;28;20220;-83
2023/05/25 07:25:37;;;;;;;22.58;11.77;;;;;;;20.39;59.24;101849.81;5017485;28;20065;-82
2023/05/25 07:28:04;;;;;;;24.65;11.75;;;;;;;21.21;56.71;101841.22;5043705;22;20145;-80
2023/05/25 07:30:30;;;;;;;21.25;11.65;;;;;;;21.08;57.03;101854.41;5012914;28;20081;-80
2023/05/25 07:32:57;;;;;;;24.85;11.70;;;;;;;21.05;57.18;101854.81;5013031;28;20130;-80
2023/05/25 07:35:24;;;;;;;22.85;11.57;;;;;;;20.73;57.76;101854.41;5014677;28;20064;-80
2023/05/25 07:37:59;;;;;;;22.70;11.88;;;;;;;20.00;58.20;101839.59;5009985;28;20169;-80
2023/05/25 07:40:27;;;;;;;23.13;11.85;;;;;;;20.47;58.47;101852.31;5007788;28;20581;-81
2023/05/25 07:42:53;;;;;;;20.02;11.90;;;;;;;20.06;58.27;101844.16;4996463;28;20077;-80
2023/05/25 07:45:20;;;;;;;22.90;11.98;;;;;;;20.34;57.83;101851.34;4998988;28;20100;-78
2023/05/25 07:47:47;;;;;;;20.95;12.63;;;;;;;21.33;56.42;101836.97;4997903;28;20054;-79
2023/05/25 07:50:14;;;;;;;20.48;12.40;;;;;;;21.24;56.28;101834.69;4998339;28;20076;-79
2023/05/25 07:52:41;;;;;;;22.27;12.63;;;;;;;21.47;56.70;101845.84;4998106;28;20478;-80
2023/05/25 07:55:10;;;;;;;19.95;13.20;;;;;;;22.24;55.74;101841.97;4998352;28;20084;-79
2023/05/25 07:57:37;;;;;;;21.50;12.57;;;;;;;23.55;54.41;101848.19;4998315;28;20088;-80
2023/05/25 08:00:06;;;;;;;24.20;13.27;;;;;;;22.13;54.07;101830.91;4998458;28;20224;-80
2023/05/25 08:02:33;;;;;;;21.73;12.48;;;;;;;21.89;55.60;101850.06;4996804;28;20096;-79
2023/05/25 08:05:04;;;;;;;29.13;15.10;;;;;;;23.39;54.71;101855.59;4997297;28;20126;-80
2023/05/25 08:07:31;;;;;;;21.13;13.70;;;;;;;23.86;54.57;101856.25;4999343;28;20042;-78
2023/05/25 08:09:57;;;;;;;21.38;14.82;;;;;;;24.19;53.20;101855.22;4998256;28;20058;-78
2023/05/25 08:12:25;;;;;;;27.02;16.05;;;;;;;23.60;53.56;101845.69;4997660;28;20043;-80
2023/05/25 08:14:52;;;;;;;27.98;16.25;;;;;;;24.24;52.13;101842.00;4998471;28;20471;-80
2023/05/25 08:17:19;;;;;;;25.33;14.40;;;;;;;21.88;55.13;101835.13;4998970;28;19930;-80
2023/05/25 08:19:46;;;;;;;27.73;14.75;;;;;;;22.64;55.50;101840.16;4996447;28;20089;-79
2023/05/25 08:22:13;;;;;;;21.45;14.05;;;;;;;22.86;54.59;101846.09;4998621;28;20076;-78
2023/05/25 08:24:40;;;;;;;23.25;14.23;;;;;;;22.01;54.98;101835.19;5002848;28;20073;-80
2023/05/25 08:27:06;;;;;;;;;;;;;;;19.99;59.04;101845.91;5002315;28;20057;-79
2023/05/25 08:29:34;;;;;;;;;;;;;;;20.41;59.23;101844.28;5001247;28;20017;-77
2023/05/25 08:32:00;;;;;;;;;;;;;;;19.63;60.50;101842.44;4995687;28;19968;-77
2023/05/25 08:34:27;;;;;;;;;;;;;;;20.88;59.42;101846.28;4994828;28;19926;-79
2023/05/25 08:36:54;;;;;;;;;;;;;;;22.46;56.07;101843.44;5000458;28;20418;-79
2023/05/25 08:39:20;;;;;;;;;;;;;;;21.61;55.42;101844.88;4996527;28;20449;-77
2023/05/25 08:41:47;;;;;;;;;;;;;;;22.49;54.27;101843.03;5002407;28;19949;-79
2023/05/25 08:44:14;;;;;;;;;;;;;;;21.43;56.27;101841.94;5000575;28;20421;-77
2023/05/25 08:46:42;;;;;;;;;;;;;;;21.51;55.97;101841.75;5002255;28;19922;-78
2023/05/25 08:49:09;;;;;;;;;;;;;;;21.06;56.66;101846.63;5001876;28;19968;-78
2023/05/25 08:51:37;;;;;;;;;;;;;;;20.37;57.69;101840.34;5002131;28;19925;-77
2023/05/25 08:54:10;;;;;;;;;;;;;;;21.59;58.00;101840.78;5002909;28;20033;-77
2023/05/25 08:56:40;;;;;;;;;;;;;;;20.60;56.68;101841.00;4998461;28;19926;-77
2023/05/25 08:59:11;;;;;;;;;;;;;;;19.87;58.36;101834.94;5003949;28;19953;-77
2023/05/25 09:01:40;;;;;;;;;;;;;;;19.75;59.78;101846.28;5004303;28;19971;-77
2023/05/25 09:04:08;;;;;;;;;;;;;;;19.83;59.84;101854.97;5004125;28;19981;-81
2023/05/25 09:06:35;;;;;;;21.90;9.75;;;;;;;20.29;59.37;101840.50;5012440;28;20083;-78
2023/05/25 09:09:04;;;;;;;17.67;9.35;;;;;;;21.12;56.83;101837.03;5014749;28;20513;-78
2023/05/25 09:11:31;;;;;;;17.75;9.80;;;;;;;21.37;55.77;101838.22;5015427;28;20050;-78
2023/05/25 09:13:59;;;;;;;17.10;8.85;;;;;;;21.04;55.30;101826.56;5013172;28;20070;-76
2023/05/25 09:16:26;;;;;;;15.55;8.65;;;;;;;21.49;55.21;101830.47;5022347;28;20069;-79
2023/05/25 09:18:52;;;;;;;18.83;9.27;;;;;;;20.46;56.21;101821.44;5017202;28;20276;-78
2023/05/25 09:21:20;;;;;;;15.75;9.52;;;;;;;19.62;58.31;101824.88;5019571;28;20069;-76
2023/05/25 09:23:48;;;;;;;14.82;9.77;;;;;;;19.98;58.22;101832.81;5022248;28;20090;-79
2023/05/25 09:26:15;;;;;;;20.38;10.77;;;;;;;18.64;60.00;101836.53;5018806;28;20057;-80
2023/05/25 09:28:45;;;;;;;16.23;9.90;;;;;;;18.09;62.12;101842.06;5020953;28;20128;-79
2023/05/25 09:31:12;;;;;;;;;;;;;;;18.79;62.08;101845.34;5016454;28;20038;-77
2023/05/25 09:33:38;;;;;;;;;;;;;;;19.78;59.70;101829.97;4992518;28;19969;-76
2023/05/25 09:36:06;;;;;;;;;;;;;;;20.53;58.98;101840.09;4992424;28;19984;-79
2023/05/25 09:38:34;;;;;;;;;;;;;;;20.03;58.67;101833.06;4998029;28;20330;-77
2023/05/25 09:41:01;;;;;;;;;;;;;;;19.05;60.62;101841.44;5003750;28;20377;-79
2023/05/25 09:43:27;;;;;;;;;;;;;;;19.73;59.78;101848.28;4989713;28;19921;-78
2023/05/25 09:45:54;;;;;;;;;;;;;;;19.77;59.62;101836.28;4995816;28;20078;-81
2023/05/25 09:48:21;;;;;;;;;;;;;;;19.27;59.57;101837.88;4991871;28;19949;-78
2023/05/25 09:50:48;;;;;;;;;;;;;;;19.64;60.42;101844.09;4987158;28;19973;-79
2023/05/25 09:53:14;;;;;;;;;;;;;;;19.66;59.64;101832.28;4986498;28;19965;-78
2023/05/25 09:55:42;;;;;;;23.50;12.07;;;;;;;18.90;61.41;101852.06;4993158;28;19926;-80
2023/05/25 09:58:12;;;;;;;20.90;13.05;;;;;;;18.04;62.98;101849.72;4994220;28;20065;-79
2023/05/25 10:00:38;;;;;;;19.90;13.70;;;;;;;17.64;64.37;101866.63;4994398;28;20092;-82
2023/05/25 10:03:06;;;;;;;22.25;14.00;;;;;;;17.70;64.73;101864.16;4997620;28;20102;-81
2023/05/25 10:05:33;;;;;;;21.23;13.98;;;;;;;17.76;64.82;101860.00;4999261;28;20047;-81
2023/05/25 10:08:02;;;;;;;16.88;12.70;;;;;;;18.29;63.95;101851.22;4999657;28;20042;-78
2023/05/25 10:10:29;;;;;;;17.15;13.10;;;;;;;19.01;62.31;101846.28;4983595;28;20109;-81
2023/05/25 10:12:58;;;;;;;19.63;13.05;;;;;;;18.59;61.64;101854.78;4987378;28;20145;-78
2023/05/25 10:15:26;;;;;;;19.25;12.63;;;;;;;18.32;61.92;101852.69;4993402;28;20046;-80
2023/05/25 10:17:54;;;;;;;17.23;11.27;;;;;;;18.31;62.46;101853.69;4992224;28;20114;-80
2023/05/25 10:20:23;;;;;;;22.77;11.48;;;;;;;19.16;61.32;101846.28;4994554;28;20049;-81
2023/05/25 10:22:55;;;;;;;20.98;13.68;;;;;;;19.07;60.88;101850.88;4992346;28;20090;-79
2023/05/25 10:25:26;;;;;;;17.45;12.45;;;;;;;19.02;61.08;101855.88;4990043;28;20043;-80
2023/05/25 10:27:59;;;;;;;19.00;12.35;;;;;;;19.13;59.89;101836.88;4991551;28;20066;-80
2023/05/25 10:30:26;;;;;;;17.65;12.60;;;;;;;19.37;60.08;101848.22;4991085;28;20046;-80
2023/05/25 10:32:55;;;;;;;19.67;12.13;;;;;;;19.21;59.97;101835.97;4993767;28;20054;-79
2023/05/25 10:35:23;;;;;;;20.63;13.30;;;;;;;19.04;60.74;101847.75;4994232;28;20050;-80
2023/05/25 10:37:52;;;;;;;17.88;12.07;;;;;;;18.83;60.35;101846.66;4993058;28;20042;-80
2023/05/25 10:40:20;;;;;;;17.00;12.55;;;;;;;18.55;61.63;101851.66;4992390;28;20050;-80
2023/05/25 10:42:47;;;;;;;22.83;12.88;;;;;;;19.26;60.68;101852.16;4990440;28;20050;-79
2023/05/25 10:45:16;;;;;;;20.45;12.68;;;;;;;18.63;60.79;101850.81;4990561;28;20047;-81
2023/05/25 10:47:45;;;;;;;20.38;13.38;;;;;;;18.01;62.50;101860.66;4990446;28;20046;-80
2023/05/25 10:50:23;;;;;;;18.92;13.68;;;;;;;18.95;61.95;101875.34;4993676;28;20069;-78
2023/05/25 10:53:00;;;;;;;19.95;14.38;;;;;;;18.08;62.43;101859.78;4991523;28;20513;-79
2023/05/25 10:55:30;;;;;;;25.75;13.10;;;;;;;17.91;63.13;101855.63;4989664;28;20100;-81
2023/05/25 10:58:11;;;;;;;18.25;12.73;;;;;;;17.73;63.41;101870.94;4991500;28;20076;-81
2023/05/25 11:00:40;;;;;;;20.38;12.70;;;;;;;18.33;62.08;101854.34;4996270;28;20503;-79
2023/05/25 11:03:08;;;;;;;16.92;12.18;;;;;;;18.48;61.94;101847.25;4996869;28;20101;-79
2023/05/25 11:05:37;;;;;;;18.15;10.80;;;;;;;18.27;62.47;101855.03;4997174;28;20081;-80
2023/05/25 11:08:06;;;;;;;17.40;9.77;;;;;;;18.62;62.75;101849.16;4986933;28;20120;-80
2023/05/25 11:10:43;;;;;;;15.32;8.88;;;;;;;18.42;63.07;101853.28;4996418;28;20078;-81
2023/05/25 11:13:38;;;;;;;14.27;9.32;;;;;;;18.77;62.28;101847.38;4986755;28;20078;-80
2023/05/25 11:16:34;;;;;;;16.60;9.48;;;;;;;18.16;61.92;101854.44;4940235;28;20057;-79
2023/05/25 11:19:02;;;;;;;17.08;10.18;;;;;;;18.34;61.78;101856.00;4991137;28;20054;-79
2023/05/25 11:21:43;;;;;;;17.60;9.93;;;;;;;18.35;61.92;101852.34;4989252;28;20050;-78
2023/05/25 11:24:15;;;;;;;12.88;8.25;;;;;;;18.72;61.89;101846.25;4996626;28;20086;-80
2023/05/25 11:26:56;;;;;;;19.58;9.27;;;;;;;18.39;61.18;101843.03;4994171;28;20094;-78
2023/05/25 11:29:25;;;;;;;18.38;9.75;;;;;;;18.10;61.41;101851.69;5005439;28;20095;-78
2023/05/25 11:31:55;;;;;;;15.10;9.27;;;;;;;17.76;63.14;101846.75;5003092;28;20101;-79